Time;durP1;ratioP1;P1;durP2;ratioP2;P2;SDS_P1;SDS_P2;PMS_P1;PMS_P2;Temp;Humidity;BMP_temperature;BMP_pressure;BME280_temperature;BME280_humidity;BME280_pressure;Samples;Min_cycle;Max_cycle;Signal;HPM_P1;HPM_P2
2020/12/08 00:02:05;;;;;;;51.70;21.40;;;4.50;99.90;;;;;;3516286;33;20107;-90
2020/12/08 00:04:49;;;;;;;52.88;22.73;;;;;;;;;;3502690;41;20482;-91
2020/12/08 00:07:17;;;;;;;49.75;22.40;;;;;;;;;;3501986;33;20137;-90
2020/12/08 00:09:45;;;;;;;44.17;21.27;;;;;;;;;;3502730;33;20144;-90
2020/12/08 00:12:18;;;;;;;48.58;23.95;;;;;;;;;;3503395;33;20529;-91
2020/12/08 00:15:07;;;;;;;54.88;24.23;;;4.60;99.90;;;;;;3508389;33;20675;-90
2020/12/08 00:17:38;;;;;;;49.38;25.02;;;;;;;;;;3515209;33;20119;-88
2020/12/08 00:20:10;;;;;;;65.85;25.85;;;;;;;;;;3493370;41;20120;-91
2020/12/08 00:22:41;;;;;;;68.88;27.42;;;;;;;;;;3510869;33;20116;-90
2020/12/08 00:25:16;;;;;;;48.03;24.80;;;4.40;99.90;;;;;;3499183;33;20798;-89
2020/12/08 00:27:47;;;;;;;61.27;27.73;;;;;;;;;;3493570;41;20116;-90
2020/12/08 00:30:23;;;;;;;59.20;27.20;;;;;;;;;;3508423;33;20100;-89
2020/12/08 00:32:54;;;;;;;62.58;26.77;;;;;;;;;;3498139;33;20131;-89
2020/12/08 00:35:24;;;;;;;73.75;29.48;;;;;;;;;;3505509;33;20119;-89
2020/12/08 00:37:52;;;;;;;61.60;29.40;;;;;;;;;;3508786;33;20132;-90
2020/12/08 00:41:12;;;;;;;69.93;30.65;;;4.40;99.90;;;;;;3499279;41;20135;-90
2020/12/08 00:43:44;;;;;;;52.45;27.25;;;;;;;;;;3523099;33;20132;-90
2020/12/08 00:46:16;;;;;;;64.68;28.13;;;;;;;;;;3495051;41;20120;-89
2020/12/08 00:48:51;;;;;;;69.93;28.75;;;;;;;;;;3511949;33;20124;-86
2020/12/08 00:51:23;;;;;;;65.22;31.23;;;;;;;;;;3500901;41;20124;-89
2020/12/08 00:54:00;;;;;;;70.30;30.50;;;;;;;;;;3506575;33;20152;-89
2020/12/08 00:56:32;;;;;;;72.47;28.98;;;;;;;;;;3498491;33;20592;-90
2020/12/08 00:59:06;;;;;;;64.88;26.80;;;;;;;;;;3493950;41;20144;-91
2020/12/08 01:02:30;;;;;;;61.65;28.75;;;4.40;99.90;;;;;;3509451;33;20088;-90
2020/12/08 01:05:01;;;;;;;68.10;30.17;;;;;;;;;;3527470;33;20111;-89
2020/12/08 01:07:34;;;;;;;58.65;28.13;;;;;;;;;;3506956;33;20208;-90
2020/12/08 01:10:04;;;;;;;58.47;23.95;;;;;;;;;;3514557;33;20114;-89
2020/12/08 01:12:34;;;;;;;53.88;29.88;;;4.60;99.90;;;;;;3495206;41;20120;-90
2020/12/08 01:15:10;;;;;;;63.58;30.23;;;;;;;;;;3497597;41;20149;-89
2020/12/08 01:17:41;;;;;;;67.55;28.98;;;;;;;;;;3505585;33;20788;-92
2020/12/08 01:20:13;;;;;;;61.65;26.58;;;;;;;;;;3508631;33;20120;-90
2020/12/08 01:22:57;;;;;;;60.40;26.05;;;;;;;;;;3493017;33;20194;-90
2020/12/08 01:25:27;;;;;;;51.83;21.73;;;;;;;;;;3510068;33;20139;-91
2020/12/08 01:27:57;;;;;;;55.38;25.08;;;;;;;;;;3502452;33;20147;-90
2020/12/08 01:30:30;;;;;;;49.67;22.92;;;;;;;;;;3513673;33;20140;-90
2020/12/08 01:33:00;;;;;;;57.50;24.67;;;;;;;;;;3544410;33;20120;-88
2020/12/08 01:35:30;;;;;;;46.97;22.27;;;;;;;;;;3510607;33;20096;-88
2020/12/08 01:38:03;;;;;;;66.70;27.73;;;;;;;;;;3545515;33;20104;-90
2020/12/08 01:40:37;;;;;;;67.57;27.20;;;;;;;;;;3510931;33;20144;-90
2020/12/08 01:43:22;;;;;;;53.92;22.50;;;;;;;;;;3526857;33;20131;-88
2020/12/08 01:46:03;;;;;;;59.90;24.90;;;;;;;;;;3509111;33;20108;-91
2020/12/08 01:48:34;;;;;;;56.75;25.25;;;;;;;;;;3507443;33;20120;-90
2020/12/08 01:51:07;;;;;;;47.72;23.83;;;;;;;;;;3504449;41;20155;-91
2020/12/08 01:53:36;;;;;;;54.58;26.92;;;;;;;;;;3499192;33;20160;-90
2020/12/08 01:56:05;;;;;;;51.17;23.50;;;;;;;;;;3527583;33;20128;-89
2020/12/08 01:58:46;;;;;;;56.72;24.10;;;;;;;;;;3508354;33;20068;-88
2020/12/08 02:01:24;;;;;;;65.00;29.38;;;;;;;;;;3526377;33;20132;-88
2020/12/08 02:04:04;;;;;;;67.70;26.95;;;;;;;;;;3522089;33;20123;-90
2020/12/08 02:06:44;;;;;;;51.60;26.20;;;;;;;;;;3499386;41;20146;-91
2020/12/08 02:09:17;;;;;;;50.83;24.23;;;;;;;;;;3513212;33;20187;-91
2020/12/08 02:11:47;;;;;;;49.97;25.33;;;;;;;;;;3496221;41;20127;-90
2020/12/08 02:14:16;;;;;;;64.07;28.33;;;;;;;;;;3511992;33;20123;-90
2020/12/08 02:16:50;;;;;;;54.20;24.63;;;;;;;;;;3503649;41;20136;-90
2020/12/08 02:19:23;;;;;;;50.42;23.67;;;;;;;;;;3511366;33;20252;-90
2020/12/08 02:22:20;;;;;;;;;;;4.60;99.90;;;;;;3504449;41;20139;-91
2020/12/08 02:24:49;;;;;;;42.92;22.00;;;;;;;;;;3526829;33;20000;-90
2020/12/08 02:27:25;;;;;;;52.92;24.95;;;;;;;;;;3529227;33;20135;-90
2020/12/08 02:30:07;;;;;;;57.42;24.38;;;4.40;99.90;;;;;;3514695;33;20540;-90
2020/12/08 02:32:40;;;;;;;62.13;24.25;;;;;;;;;;3516556;33;20107;-90
2020/12/08 02:35:36;;;;;;;57.05;23.73;;;4.40;99.90;;;;;;3536587;33;20116;-89
2020/12/08 02:38:13;;;;;;;49.42;24.30;;;;;;;;;;3505858;33;20128;-90
2020/12/08 02:40:47;;;;;;;56.53;25.55;;;;;;;;;;3489751;33;20133;-89
2020/12/08 02:43:28;;;;;;;56.22;24.90;;;;;;;;;;3475017;41;20109;-88
2020/12/08 02:46:00;;;;;;;63.58;27.13;;;;;;;;;;3482867;41;20144;-89
2020/12/08 02:48:28;;;;;;;65.78;24.15;;;;;;;;;;3491111;33;20112;-90
2020/12/08 02:51:03;;;;;;;68.60;27.33;;;;;;;;;;3488517;33;20620;-90
2020/12/08 02:53:39;;;;;;;67.38;26.63;;;;;;;;;;3495824;33;20116;-90
2020/12/08 02:56:27;;;;;;;62.03;29.92;;;4.60;99.90;;;;;;3502229;33;20121;-89
2020/12/08 02:59:06;;;;;;;47.90;25.23;;;;;;;;;;3487557;33;20128;-89
2020/12/08 03:01:35;;;;;;;56.75;23.05;;;;;;;;;;3487850;33;20108;-89
2020/12/08 03:04:08;;;;;;;52.78;24.40;;;4.60;99.90;;;;;;3488371;41;20128;-89
2020/12/08 03:06:42;;;;;;;56.30;24.63;;;;;;;;;;3495227;33;20143;-91
2020/12/08 03:09:13;;;;;;;56.60;24.48;;;;;;;;;;3492443;41;20132;-90
2020/12/08 03:11:43;;;;;;;;;;;4.50;99.90;;;;;;3493646;33;20147;-90
2020/12/08 03:14:22;;;;;;;45.15;20.42;;;;;;;;;;3476263;41;20009;-88
2020/12/08 03:16:58;;;;;;;51.00;24.27;;;;;;;;;;3501393;33;20513;-89
2020/12/08 03:19:29;;;;;;;52.95;23.58;;;;;;;;;;3485881;33;20128;-91
2020/12/08 03:21:59;;;;;;;61.97;25.25;;;;;;;;;;3491824;33;20113;-90
2020/12/08 03:24:43;;;;;;;49.30;24.95;;;;;;;;;;3499904;33;20112;-89
2020/12/08 03:27:26;;;;;;;57.75;28.27;;;;;;;;;;3490506;33;20132;-89
2020/12/08 03:30:00;;;;;;;57.92;24.08;;;;;;;;;;3503843;33;20144;-89
2020/12/08 03:32:32;;;;;;;59.60;26.27;;;;;;;;;;3484946;41;20120;-89
2020/12/08 03:35:08;;;;;;;55.80;25.45;;;;;;;;;;3496325;33;20447;-91
2020/12/08 03:37:38;;;;;;;51.60;22.85;;;;;;;;;;3496554;33;20183;-90
2020/12/08 03:40:12;;;;;;;48.38;27.13;;;;;;;;;;3494091;41;20120;-91
2020/12/08 03:42:41;;;;;;;40.53;21.63;;;;;;;;;;3513023;33;20137;-90
2020/12/08 03:45:09;;;;;;;48.05;23.23;;;;;;;;;;3495049;33;20128;-90
2020/12/08 03:47:48;;;;;;;58.78;24.77;;;;;;;;;;3499053;33;20126;-90
2020/12/08 03:50:27;;;;;;;47.92;22.10;;;;;;;;;;3512045;33;20169;-90
2020/12/08 03:52:57;;;;;;;55.10;27.20;;;;;;;;;;3508910;33;20123;-89
2020/12/08 03:55:31;;;;;;;48.70;26.02;;;;;;;;;;3504143;33;20128;-90
2020/12/08 03:58:03;;;;;;;54.85;23.55;;;;;;;;;;3503009;41;20135;-89
2020/12/08 04:00:33;;;;;;;51.13;24.35;;;;;;;;;;3495538;41;20134;-91
2020/12/08 04:03:04;;;;;;;49.40;26.50;;;;;;;;;;3514931;33;20113;-90
2020/12/08 04:05:37;;;;;;;50.28;22.45;;;;;;;;;;3561790;33;20120;-90
2020/12/08 04:08:13;;;;;;;54.10;23.95;;;;;;;;;;3509129;33;20123;-89
2020/12/08 04:10:49;;;;;;;51.53;23.40;;;;;;;;;;3505010;33;20152;-89
2020/12/08 04:13:16;;;;;;;54.00;22.23;;;;;;;;;;3500879;33;20135;-89
2020/12/08 04:15:49;;;;;;;53.22;24.60;;;;;;;;;;3498091;33;20120;-89
2020/12/08 04:18:39;;;;;;;60.78;24.05;;;;;;;;;;3521550;33;20147;-88
2020/12/08 04:21:35;;;;;;;60.15;28.83;;;4.50;99.90;;;;;;3501466;33;20115;-89
2020/12/08 04:24:14;;;;;;;56.17;24.90;;;;;;;;;;3496714;41;20151;-90
2020/12/08 04:26:47;;;;;;;56.47;24.33;;;;;;;;;;3519798;33;20127;-89
2020/12/08 04:29:24;;;;;;;52.40;24.80;;;;;;;;;;3512165;33;20175;-89
2020/12/08 04:31:55;;;;;;;60.20;25.23;;;;;;;;;;3524408;33;20160;-90
2020/12/08 04:34:29;;;;;;;63.15;24.23;;;;;;;;;;3492975;33;20244;-90
2020/12/08 04:36:59;;;;;;;60.88;26.85;;;;;;;;;;3495986;33;20608;-89
2020/12/08 04:39:33;;;;;;;66.32;26.98;;;;;;;;;;3492393;33;20112;-90
2020/12/08 04:42:01;;;;;;;62.13;27.67;;;;;;;;;;3500547;41;20140;-90
2020/12/08 04:44:33;;;;;;;63.97;28.13;;;;;;;;;;3498720;33;20112;-89
2020/12/08 04:47:05;;;;;;;63.90;25.13;;;4.50;99.90;;;;;;3484487;41;20139;-89
2020/12/08 04:49:41;;;;;;;69.78;30.63;;;4.40;99.90;;;;;;3499857;33;20126;-90
2020/12/08 04:52:12;;;;;;;59.95;28.40;;;4.40;99.90;;;;;;3487784;33;20116;-91
2020/12/08 04:54:43;;;;;;;65.53;26.85;;;;;;;;;;3503996;33;20132;-90
2020/12/08 04:57:14;;;;;;;67.43;27.10;;;;;;;;;;3500290;41;20120;-91
2020/12/08 04:59:44;;;;;;;65.32;28.27;;;;;;;;;;3510206;33;20096;-89
2020/12/08 05:02:17;;;;;;;57.33;25.43;;;;;;;;;;3511463;33;20127;-89
2020/12/08 05:04:54;;;;;;;70.35;27.85;;;4.60;99.90;;;;;;3518614;33;20493;-90
2020/12/08 05:07:27;;;;;;;66.03;29.35;;;;;;;;;;3513460;33;20613;-90
2020/12/08 05:09:57;;;;;;;47.85;23.60;;;;;;;;;;3490576;41;20152;-90
2020/12/08 05:12:25;;;;;;;58.28;25.10;;;;;;;;;;3507291;33;20119;-90
2020/12/08 05:14:57;;;;;;;60.03;26.33;;;;;;;;;;3528200;33;20846;-90
2020/12/08 05:17:31;;;;;;;54.10;24.98;;;;;;;;;;3494955;33;20096;-90
2020/12/08 05:20:02;;;;;;;62.75;27.98;;;4.60;99.90;;;;;;3503040;33;20137;-90
2020/12/08 05:22:33;;;;;;;51.10;24.75;;;;;;;;;;3486905;41;20112;-91
2020/12/08 05:25:09;;;;;;;46.80;23.35;;;;;;;;;;3495767;41;20896;-89
2020/12/08 05:27:44;;;;;;;51.40;22.60;;;4.60;99.90;;;;;;3491433;33;20108;-90
2020/12/08 05:30:12;;;;;;;48.17;23.37;;;;;;;;;;3492265;33;20148;-90
2020/12/08 05:32:41;;;;;;;54.10;22.20;;;;;;;;;;3495268;33;20236;-91
2020/12/08 05:35:10;;;;;;;51.17;23.65;;;4.70;99.90;;;;;;3501846;33;20141;-90
2020/12/08 05:37:45;;;;;;;51.78;23.95;;;4.60;99.90;;;;;;3503318;33;20136;-91
2020/12/08 05:40:17;;;;;;;43.95;24.13;;;;;;;;;;3499100;41;20100;-89
2020/12/08 05:42:54;;;;;;;48.88;22.98;;;;;;;;;;3502963;33;20148;-90
2020/12/08 05:45:24;;;;;;;50.25;25.35;;;;;;;;;;3491804;41;20134;-91
2020/12/08 05:47:57;;;;;;;57.03;26.45;;;4.70;99.90;;;;;;3501852;33;20144;-89
2020/12/08 05:50:28;;;;;;;60.30;28.20;;;;;;;;;;3493417;33;20136;-90
2020/12/08 05:53:02;;;;;;;59.15;25.33;;;4.60;99.90;;;;;;3488326;33;20128;-90
2020/12/08 05:55:32;;;;;;;58.15;26.40;;;4.70;99.90;;;;;;3493485;33;20120;-90
2020/12/08 05:58:09;;;;;;;60.30;27.65;;;4.70;99.90;;;;;;3483936;41;20128;-91
2020/12/08 06:00:40;;;;;;;54.92;26.92;;;;;;;;;;3496624;33;20120;-90
2020/12/08 06:03:09;;;;;;;62.70;28.48;;;;;;;;;;3501671;33;20097;-88
2020/12/08 06:05:40;;;;;;;73.90;27.60;;;4.70;99.90;;;;;;3510422;33;20113;-90
2020/12/08 06:08:17;;;;;;;63.65;25.40;;;;;;;;;;3548085;33;20109;-91
2020/12/08 06:10:46;;;;;;;59.90;25.95;;;4.70;99.90;;;;;;3503714;33;20169;-90
2020/12/08 06:13:26;;;;;;;65.85;28.27;;;;;;;;;;3492448;41;20132;-88
2020/12/08 06:15:56;;;;;;;57.28;27.70;;;4.70;99.90;;;;;;3500772;33;20124;-90
2020/12/08 06:18:39;;;;;;;77.82;33.58;;;4.70;99.90;;;;;;3477365;33;20144;-91
2020/12/08 06:21:31;;;;;;;66.80;28.25;;;4.60;99.90;;;;;;3492104;41;20124;-90
2020/12/08 06:24:01;;;;;;;68.93;28.73;;;4.70;99.90;;;;;;3490759;41;20127;-91
2020/12/08 06:26:30;;;;;;;59.20;26.13;;;;;;;;;;3483821;33;20214;-90
2020/12/08 06:29:06;;;;;;;59.15;29.05;;;4.60;99.90;;;;;;3474988;33;20223;-90
2020/12/08 06:31:47;;;;;;;56.40;25.30;;;4.60;99.90;;;;;;3499417;33;20153;-89
2020/12/08 06:34:28;;;;;;;63.45;27.40;;;;;;;;;;3491064;33;20124;-90
2020/12/08 06:37:10;;;;;;;67.13;29.52;;;;;;;;;;3483839;41;20135;-90
2020/12/08 06:39:38;;;;;;;56.28;24.15;;;;;;;;;;3496661;33;20129;-90
2020/12/08 06:42:14;;;;;;;59.80;28.88;;;4.50;99.90;;;;;;3490979;33;20158;-90
2020/12/08 06:44:43;;;;;;;61.80;28.98;;;;;;;;;;3494146;33;20132;-90
2020/12/08 06:47:11;;;;;;;55.15;23.95;;;;;;;;;;3497205;41;20152;-89
2020/12/08 06:49:42;;;;;;;47.90;24.73;;;;;;;;;;3489504;41;20127;-89
2020/12/08 06:52:12;;;;;;;68.88;28.38;;;4.60;99.90;;;;;;3487767;41;20144;-90
2020/12/08 06:54:44;;;;;;;62.88;25.95;;;;;;;;;;3495531;33;20127;-90
2020/12/08 06:57:25;;;;;;;57.50;26.83;;;;;;;;;;3489981;33;20136;-92
2020/12/08 07:00:12;;;;;;;56.50;25.33;;;;;;;;;;3531839;33;20159;-91
2020/12/08 07:02:52;;;;;;;57.22;27.55;;;4.60;99.90;;;;;;3499825;33;20129;-93
2020/12/08 07:05:24;;;;;;;57.90;23.60;;;;;;;;;;3534773;35;21316;-91
2020/12/08 07:07:58;;;;;;;54.65;25.08;;;4.60;99.90;;;;;;3527064;33;20131;-92
2020/12/08 07:10:39;;;;;;;56.97;24.95;;;;;;;;;;3510844;40;20147;-91
2020/12/08 07:13:15;;;;;;;59.20;28.17;;;4.70;99.90;;;;;;3503680;33;20833;-90
2020/12/08 07:15:45;;;;;;;54.60;23.15;;;;;;;;;;3519169;33;20140;-91
2020/12/08 07:18:25;;;;;;;57.25;24.83;;;;;;;;;;3503936;40;20136;-92
2020/12/08 07:21:21;;;;;;;48.70;25.48;;;4.80;99.90;;;;;;3512706;33;20563;-89
2020/12/08 07:24:08;;;;;;;62.63;29.17;;;;;;;;;;3512105;33;20131;-90
2020/12/08 07:26:39;;;;;;;53.72;26.40;;;;;;;;;;3524392;33;20115;-93
2020/12/08 07:29:21;;;;;;;55.15;24.55;;;;;;;;;;3514787;33;20120;-90
2020/12/08 07:31:58;;;;;;;52.40;24.75;;;;;;;;;;3499452;33;20132;-90
2020/12/08 07:34:47;;;;;;;52.40;24.85;;;;;;;;;;3516248;33;20115;-94
2020/12/08 07:37:16;;;;;;;56.33;23.90;;;;;;;;;;3500059;33;20136;-90
2020/12/08 07:39:55;;;;;;;61.80;26.48;;;;;;;;;;3507752;33;20134;-93
2020/12/08 07:42:30;;;;;;;49.78;22.67;;;;;;;;;;3500755;33;20134;-92
2020/12/08 07:45:50;;;;;;;53.72;25.08;;;;;;;;;;3487358;33;20148;-94
2020/12/08 07:49:13;;;;;;;53.17;24.83;;;;;;;;;;3471956;41;20081;-90
2020/12/08 07:52:21;;;;;;;55.22;22.70;;;;;;;;;;3514593;33;20104;-95
2020/12/08 07:55:10;;;;;;;47.17;24.70;;;;;;;;;;3494303;33;20131;-94
2020/12/08 07:57:59;;;;;;;54.38;22.40;;;;;;;;;;3484026;34;20098;-94
2020/12/08 08:01:09;;;;;;;57.70;24.10;;;;;;;;;;3481718;41;20115;-94
2020/12/08 08:10:44;;;;;;;54.45;24.38;;;;;;;;;;3576535;33;20110;-94
2020/12/08 08:17:32;;;;;;;51.88;22.80;;;;;;;;;;3524371;33;20264;-94
2020/12/08 08:20:30;;;;;;;51.15;23.63;;;;;;;;;;3520235;40;20119;-93
2020/12/08 08:23:51;;;;;;;50.95;23.20;;;;;;;;;;3516154;33;20084;-94
2020/12/08 08:27:16;;;;;;;47.28;20.45;;;;;;;;;;3518784;40;20119;-92
2020/12/08 08:34:42;;;;;;;53.25;22.55;;;;;;;;;;3497122;33;20112;-93
2020/12/08 08:37:59;;;;;;;50.13;23.77;;;;;;;;;;3494220;41;20124;-93
2020/12/08 08:41:23;;;;;;;50.42;22.33;;;4.30;99.90;;;;;;3560838;35;20099;-94
2020/12/08 08:44:27;;;;;;;60.53;24.48;;;;;;;;;;3504132;40;20097;-94
2020/12/08 08:50:45;;;;;;;51.42;22.13;;;;;;;;;;3547789;35;20119;-94
2020/12/08 08:57:21;;;;;;;41.65;21.73;;;;;;;;;;3830139;27;21035;-93
2020/12/08 09:03:34;;;;;;;47.70;22.50;;;;;;;;;;3898628;27;20060;-93
2020/12/08 09:07:20;;;;;;;53.47;26.60;;;;;;;;;;3495914;41;20112;-93
2020/12/08 09:11:06;;;;;;;47.97;21.42;;;4.60;99.90;;;;;;3479141;33;20082;-94
2020/12/08 09:23:45;;;;;;;51.22;24.42;;;;;;;;;;2811229;35;20080;-93
2020/12/08 09:39:24;;;;;;;50.58;26.23;;;;;;;;;;1302888;27;21417;-95
2020/12/08 09:42:40;;;;;;;50.65;28.05;;;4.50;99.90;;;;;;3576044;35;20143;-94
2020/12/08 09:52:19;;;;;;;51.42;27.63;;;;;;;;;;2489516;28;20076;-94
2020/12/08 10:08:43;;;;;;;53.25;22.83;;;4.70;99.90;;;;;;3523299;27;20090;-93
2020/12/08 10:12:32;;;;;;;48.63;22.35;;;4.90;99.90;;;;;;3966028;28;20488;-93
2020/12/08 10:16:15;;;;;;;46.87;22.83;;;4.80;99.90;;;;;;3385535;31;20468;-92
2020/12/08 10:19:38;;;;;;;50.22;23.70;;;5.00;99.90;;;;;;3466207;34;20114;-95
2020/12/08 10:29:12;;;;;;;46.97;23.63;;;;;;;;;;3524443;35;20076;-94
2020/12/08 10:32:29;;;;;;;50.13;25.88;;;;;;;;;;3496555;41;20096;-95
2020/12/08 10:41:51;;;;;;;42.55;23.08;;;;;;;;;;3507868;40;20096;-94
2020/12/08 10:45:39;;;;;;;41.10;24.27;;;5.00;99.90;;;;;;3517343;40;20100;-95
2020/12/08 10:55:52;;;;;;;48.78;25.30;;;4.90;99.90;;;;;;3525556;40;20100;-93
2020/12/08 10:59:04;;;;;;;44.83;22.10;;;;;;;;;;3532595;33;20147;-93
2020/12/08 11:01:57;;;;;;;43.45;23.00;;;;;;;;;;3587261;33;20813;-93
2020/12/08 11:04:53;;;;;;;49.20;22.40;;;4.80;99.90;;;;;;3548300;33;20105;-94
2020/12/08 11:07:42;;;;;;;49.67;23.52;;;;;;;;;;3499568;41;20096;-93
2020/12/08 11:10:34;;;;;;;51.85;25.10;;;;;;;;;;3505538;41;20116;-94
2020/12/08 11:13:43;;;;;;;49.85;23.83;;;;;;;;;;3494445;41;20149;-93
2020/12/08 11:16:33;;;;;;;44.63;24.75;;;;;;;;;;3502187;33;20135;-93
2020/12/08 11:19:46;;;;;;;47.63;23.75;;;;;;;;;;3516821;33;20108;-93
2020/12/08 11:22:33;;;;;;;47.05;22.38;;;;;;;;;;3497286;33;20753;-94
2020/12/08 11:25:12;;;;;;;47.33;22.23;;;;;;;;;;3506557;33;20108;-94
2020/12/08 11:28:04;;;;;;;39.85;20.33;;;;;;;;;;3529604;33;20175;-93
2020/12/08 11:31:38;;;;;;;50.72;24.70;;;;;;;;;;3554793;33;20110;-94
2020/12/08 11:35:15;;;;;;;38.05;19.08;;;;;;;;;;3513389;41;20108;-92
2020/12/08 11:38:11;;;;;;;42.45;19.17;;;;;;;;;;3497116;41;20112;-93
2020/12/08 11:41:49;;;;;;;39.10;21.83;;;5.30;99.90;;;;;;3578520;33;20108;-93
2020/12/08 11:45:26;;;;;;;49.53;22.60;;;;;;;;;;3539556;33;20072;-94
2020/12/08 11:48:49;;;;;;;43.78;19.88;;;5.30;99.90;;;;;;3508633;33;20120;-93
2020/12/08 11:51:36;;;;;;;46.25;20.42;;;;;;;;;;3511518;40;20118;-92
2020/12/08 11:54:49;;;;;;;46.83;22.55;;;5.20;99.90;;;;;;3522044;33;20076;-94
2020/12/08 11:57:36;;;;;;;42.47;20.92;;;;;;;;;;3518740;33;20080;-94
2020/12/08 12:01:21;;;;;;;41.08;18.85;;;5.30;99.90;;;;;;3522125;33;20134;-94
2020/12/08 12:04:14;;;;;;;44.30;17.52;;;;;;;;;;3518554;40;20112;-90
2020/12/08 12:06:42;;;;;;;40.70;17.85;;;;;;;;;;3541168;33;20119;-91
2020/12/08 12:16:52;;;;;;;37.72;16.58;;;6.00;99.90;;;;;;2027666;35;20388;-95
2020/12/08 12:31:58;;;;;;;33.20;15.40;;;;;;;;;;3532079;35;20113;-95
2020/12/08 12:35:13;;;;;;;33.67;14.35;;;;;;;;;;3512894;40;20545;-95
2020/12/08 12:41:27;;;;;;;40.47;18.20;;;5.90;99.90;;;;;;3523605;40;20106;-92
2020/12/08 12:44:11;;;;;;;40.75;18.38;;;;;;;;;;3502366;40;20108;-91
2020/12/08 12:46:56;;;;;;;38.13;17.27;;;;;;;;;;3519908;33;20092;-88
2020/12/08 12:49:32;;;;;;;35.90;18.17;;;;;;;;;;3516485;40;20234;-89
2020/12/08 12:52:03;;;;;;;33.97;17.45;;;;;;;;;;3511614;33;20085;-91
2020/12/08 12:54:31;;;;;;;37.80;20.00;;;;;;;;;;3522964;33;20092;-91
2020/12/08 12:57:14;;;;;;;33.22;17.60;;;;;;;;;;3507634;41;20104;-89
2020/12/08 12:59:45;;;;;;;40.10;19.85;;;;;;;;;;3512118;33;20111;-91
2020/12/08 13:02:27;;;;;;;38.65;16.63;;;;;;;;;;3510070;40;20111;-91
2020/12/08 13:05:07;;;;;;;37.28;16.75;;;;;;;;;;3509385;40;20154;-89
2020/12/08 13:07:37;;;;;;;33.10;15.35;;;;;;;;;;3510570;33;20096;-89
2020/12/08 13:10:10;;;;;;;29.23;15.20;;;;;;;;;;3524802;40;20123;-89
2020/12/08 13:13:10;;;;;;;40.63;18.52;;;6.20;99.90;;;;;;3537423;33;20108;-89
2020/12/08 13:15:40;;;;;;;33.60;17.92;;;;;;;;;;3510003;40;20099;-88
2020/12/08 13:18:13;;;;;;;43.47;18.10;;;;;;;;;;3514394;33;20138;-88
2020/12/08 13:20:45;;;;;;;38.85;20.85;;;;;;;;;;3518509;33;20139;-89
2020/12/08 13:23:35;;;;;;;34.67;17.83;;;;;;;;;;3513914;40;20080;-89
2020/12/08 13:26:19;;;;;;;40.58;18.98;;;;;;;;;;3543064;33;20111;-91
2020/12/08 13:28:49;;;;;;;32.75;17.88;;;;;;;;;;3514164;33;20092;-91
2020/12/08 13:31:28;;;;;;;38.15;18.50;;;6.60;99.90;;;;;;3512467;33;20111;-88
2020/12/08 13:34:02;;;;;;;28.67;15.48;;;;;;;;;;3507574;40;20072;-90
2020/12/08 13:36:32;;;;;;;43.85;19.15;;;6.70;99.90;;;;;;3510905;33;20108;-90
2020/12/08 13:39:04;;;;;;;41.53;18.45;;;;;;;;;;3492753;33;20120;-91
2020/12/08 13:41:55;;;;;;;36.22;17.92;;;6.80;99.90;;;;;;3497148;33;20116;-92
2020/12/08 13:44:43;;;;;;;38.22;18.98;;;;;;;;;;3495951;33;20123;-91
2020/12/08 13:47:17;;;;;;;38.63;18.15;;;;;;;;;;3557880;33;20104;-90
2020/12/08 13:49:48;;;;;;;36.85;18.27;;;;;;;;;;3519014;33;20135;-89
2020/12/08 13:52:27;;;;;;;32.30;16.45;;;6.90;99.90;;;;;;3500802;33;20112;-92
2020/12/08 13:55:17;;;;;;;31.67;16.85;;;7.10;99.90;;;;;;3523860;33;20132;-92
2020/12/08 13:58:15;;;;;;;33.38;15.98;;;6.90;99.90;;;;;;3505071;33;20120;-90
2020/12/08 14:00:42;;;;;;;27.75;15.18;;;;;;;;;;3491718;33;20116;-89
2020/12/08 14:03:10;;;;;;;31.55;15.95;;;;;;;;;;3507354;33;20142;-90
2020/12/08 14:05:41;;;;;;;36.63;15.35;;;;;;;;;;3523620;33;20112;-91
2020/12/08 14:08:14;;;;;;;27.25;13.82;;;;;;;;;;3516276;33;20151;-90
2020/12/08 14:10:47;;;;;;;31.23;15.93;;;;;;;;;;3532835;33;20127;-90
2020/12/08 14:13:17;;;;;;;30.60;15.27;;;;;;;;;;3527568;33;20136;-94
2020/12/08 14:16:03;;;;;;;34.90;16.42;;;;;;;;;;3514548;33;20112;-93
2020/12/08 14:35:38;;;;;;;21.38;11.30;;;;;;;;;;3518257;40;20076;-94
2020/12/08 14:40:00;;;;;;;30.75;15.63;;;6.70;99.90;;;;;;3517559;33;20077;-93
2020/12/08 14:47:14;;;;;;;31.13;11.65;;;;;;;;;;3676635;35;20125;-94
2020/12/08 14:56:27;;;;;;;30.88;12.85;;;;;;;;;;3486669;41;20109;-92
2020/12/08 14:58:58;;;;;;;28.05;13.30;;;;;;;;;;3516995;35;20104;-92
2020/12/08 15:02:02;;;;;;;23.17;11.48;;;;;;;;;;3516155;33;20128;-91
2020/12/08 15:04:45;;;;;;;25.50;11.32;;;;;;;;;;3502791;41;20132;-89
2020/12/08 15:07:55;;;;;;;20.60;10.55;;;6.10;99.90;;;;;;3501398;40;20148;-87
2020/12/08 15:15:01;;;;;;;29.83;12.68;;;;;;;;;;3520705;33;20097;-85
2020/12/08 15:17:39;;;;;;;27.45;13.25;;;;;;;;;;3488943;41;20117;-89
2020/12/08 15:20:25;;;;;;;26.02;13.48;;;;;;;;;;3474231;41;20322;-86
2020/12/08 15:23:04;;;;;;;29.42;12.50;;;5.70;99.90;;;;;;3490221;33;20124;-89
2020/12/08 15:25:37;;;;;;;27.58;12.52;;;;;;;;;;3468319;41;20123;-89
2020/12/08 15:28:20;;;;;;;29.63;11.77;;;;;;;;;;3487453;33;20124;-90
2020/12/08 15:30:59;;;;;;;26.35;11.88;;;;;;;;;;3470264;33;20128;-90
2020/12/08 15:33:41;;;;;;;;;;;5.60;99.90;;;;;;3470904;33;20232;-89
2020/12/08 15:36:18;;;;;;;26.48;11.27;;;;;;;;;;3468464;33;20017;-89
2020/12/08 15:38:50;;;;;;;28.65;14.43;;;;;;;;;;3485330;33;20176;-88
2020/12/08 15:41:40;;;;;;;27.88;13.73;;;;;;;;;;3483106;41;20065;-88
2020/12/08 15:44:11;;;;;;;25.77;13.25;;;;;;;;;;3483619;41;20121;-88
2020/12/08 15:46:44;;;;;;;33.35;13.50;;;;;;;;;;3490404;33;20508;-88
2020/12/08 15:49:16;;;;;;;40.50;20.75;;;;;;;;;;3491311;41;20135;-89
2020/12/08 15:51:45;;;;;;;30.08;17.67;;;;;;;;;;3495744;33;20137;-88
2020/12/08 15:54:16;;;;;;;25.55;13.10;;;;;;;;;;3487812;41;20123;-89
2020/12/08 15:56:47;;;;;;;29.00;13.10;;;;;;;;;;3488960;33;20124;-89
2020/12/08 15:59:18;;;;;;;28.95;13.82;;;;;;;;;;3493339;41;20132;-90
2020/12/08 16:01:48;;;;;;;28.15;12.70;;;;;;;;;;3493429;41;20132;-90
2020/12/08 16:04:40;;;;;;;26.98;12.13;;;;;;;;;;3499856;33;20108;-91
2020/12/08 16:07:10;;;;;;;25.88;13.02;;;;;;;;;;3493007;41;20119;-90
2020/12/08 16:09:41;;;;;;;27.77;12.63;;;;;;;;;;3486491;41;20156;-88
2020/12/08 16:12:17;;;;;;;23.38;13.20;;;;;;;;;;3468007;41;20153;-90
2020/12/08 16:14:45;;;;;;;24.45;11.75;;;;;;;;;;3484619;33;20211;-90
2020/12/08 16:17:15;;;;;;;28.33;11.13;;;;;;;;;;3477375;41;20677;-89
2020/12/08 16:19:43;;;;;;;26.42;12.10;;;;;;;;;;3498253;41;20164;-90
2020/12/08 16:22:17;;;;;;;35.00;14.15;;;;;;;;;;3487368;33;20121;-89
2020/12/08 16:24:45;;;;;;;32.60;13.70;;;;;;;;;;3498551;33;20129;-88
2020/12/08 16:27:20;;;;;;;25.65;12.00;;;;;;;;;;3488818;33;20225;-89
2020/12/08 16:29:53;;;;;;;22.67;12.48;;;;;;;;;;3495014;33;20160;-89
2020/12/08 16:32:23;;;;;;;27.98;15.10;;;;;;;;;;3487104;41;20184;-87
2020/12/08 16:34:56;;;;;;;31.15;15.57;;;;;;;;;;3488497;33;20156;-88
2020/12/08 16:37:34;;;;;;;36.47;16.75;;;;;;;;;;3492832;33;20116;-88
2020/12/08 16:40:11;;;;;;;35.55;19.08;;;;;;;;;;3491760;41;20995;-93
2020/12/08 16:42:41;;;;;;;32.25;16.67;;;;;;;;;;3499305;33;20124;-87
2020/12/08 16:45:15;;;;;;;29.73;15.98;;;;;;;;;;3496452;41;20116;-89
2020/12/08 16:47:47;;;;;;;35.38;16.50;;;;;;;;;;3506005;33;20085;-88
2020/12/08 16:50:20;;;;;;;30.33;14.70;;;;;;;;;;3511140;33;20131;-89
2020/12/08 16:52:49;;;;;;;33.20;15.60;;;3.60;99.90;;;;;;3499940;33;20151;-85
2020/12/08 16:55:18;;;;;;;34.08;15.35;;;;;;;;;;3493653;33;20132;-89
2020/12/08 16:57:48;;;;;;;28.98;16.13;;;;;;;;;;3490560;33;20145;-88
2020/12/08 17:00:18;;;;;;;34.08;14.15;;;;;;;;;;3500365;33;20494;-89
2020/12/08 17:02:48;;;;;;;35.83;14.57;;;;;;;;;;3490394;33;20129;-88
2020/12/08 17:05:19;;;;;;;35.22;15.77;;;;;;;;;;3500038;33;20171;-88
2020/12/08 17:12:58;;;;;;;109.50;57.35;;;3.50;99.90;;;;;;3490599;41;20151;-89
2020/12/08 17:15:26;;;;;;;88.85;48.40;;;;;;;;;;3474978;33;20122;-89
2020/12/08 17:17:56;;;;;;;56.65;36.42;;;;;;;;;;3478084;33;20141;-89
2020/12/08 17:20:28;;;;;;;47.03;28.77;;;;;;;;;;3485483;33;20117;-89
2020/12/08 17:23:02;;;;;;;42.92;24.80;;;;;;;;;;3481748;33;20136;-88
2020/12/08 17:25:31;;;;;;;31.55;19.55;;;;;;;;;;3485942;33;20149;-87
2020/12/08 17:28:00;;;;;;;35.20;18.50;;;;;;;;;;3472031;41;20156;-87
2020/12/08 17:30:30;;;;;;;34.85;15.75;;;;;;;;;;3476290;33;20818;-87
2020/12/08 17:33:03;;;;;;;31.05;15.27;;;;;;;;;;3531001;27;20148;-89
2020/12/08 17:35:32;;;;;;;38.03;16.02;;;;;;;;;;3496805;40;20134;-89
2020/12/08 17:38:05;;;;;;;33.15;15.05;;;;;;;;;;3485328;33;20149;-91
2020/12/08 17:40:37;;;;;;;30.60;14.10;;;;;;;;;;3493549;41;20119;-92
2020/12/08 17:43:09;;;;;;;34.75;14.43;;;;;;;;;;3505736;33;20146;-88
2020/12/08 17:45:39;;;;;;;30.13;16.60;;;;;;;;;;3493042;33;20164;-87